• Join FlightAware (Why Join?)
  • Login
  • US Flag 
02:11AM EDT


 

Airport Tracker/Info


-or-


 

Live Flight TrackerFlight Track Log ✈ N244A ✈ 08-Nov-2013 ✈ KHPN - CYYZ

Flight Track Log - Related Links

Times and Time Zones

All times are in EST time to prevent confusion due to time zone crossing. See the N244A flight status page for this flight to view local times or setup timezone preferences in your user account.

Time Position Orientation Groundspeed Altitude Reporting Facility
EST Latitude Longitude Course Direction KTS MPH feet Rate Location/Type
04:36PM 41.1000 -73.7833 323° Northwest 240 276 3,800  Level New York TRACON
04:38PM 41.1731 -73.9436 301° West 260 299 13,000 3,900 Climbing New York Center
04:39PM 41.2208 -74.0261 308° West 285 328 15,700 1,380 Climbing New York Center
04:40PM 41.2864 -74.1369 308° West 344 396 15,900 180 Climbing New York Center
04:41PM 41.3610 -74.3190 323° Northwest  Level Estimated
04:41PM 41.3281 -74.2136 306° West 322 371 16,100  Level New York Center
04:42PM 41.3811 -74.3214 303° West 305 351 16,000 -60 Descending New York Center
04:43PM 41.4300 -74.4261 302° West 347 399 16,000 1,320 Level New York Center
04:44PM 41.4881 -74.5594 300° West 378 435 18,700 3,060 Climbing New York Center
04:45PM 41.5347 -74.6619 301° West 378 435 22,100 2,820 Climbing New York Center
04:46PM 41.5811 -74.7756 299° West 373 429 24,500 2,100 Climbing New York Center
04:47PM 41.6353 -74.8925 302° West 367 422 26,400 1,980 Climbing New York Center
04:49PM 41.7436 -75.1481 300° West 365 420 31,100 1,860 Climbing Cleveland Center
04:50PM 41.7850 -75.2411 301° West 362 417 32,000 480 Climbing New York Center
04:51PM 41.8364 -75.3672 299° West 372 428 32,000  Level New York Center
04:52PM 41.8897 -75.4961 299° West 383 441 32,000  Level New York Center
04:53PM 41.9469 -75.6258 301° West 393 452 32,000  Level New York Center
04:54PM 42.0017 -75.7636 298° West 407 468 32,000  Level New York Center
04:56PM 42.1167 -76.0667 297° West 410 472 32,000  Level Toronto Center
04:57PM 42.1833 -76.2000 304° West 410 472 32,000  Level Toronto Center
04:58PM 42.2167 -76.3500 287° West 410 472 32,000  Level Toronto Center
04:59PM 42.2500 -76.4833 289° West 410 472 32,000  Level Toronto Center
05:00PM 42.3000 -76.6167 297° West 400 460 32,000  Level Toronto Center
05:01PM 42.3500 -76.7500 297° West 410 472 32,000  Level Toronto Center
05:02PM 42.4000 -76.9000 294° West 410 472 32,000 -360 Level Toronto Center
05:03PM 42.4333 -77.0333 289° West 400 460 31,300 -960 Descending Toronto Center
05:04PM 42.4833 -77.1667 297° West 400 460 30,100 -1,380 Descending Toronto Center
05:05PM 42.5167 -77.3000 289° West 390 449 28,600 -1,380 Descending Toronto Center
05:05PM 42.5533 -77.3900 299° West 393 452 28,000 -420 Descending Cleveland Center
05:07PM 42.5933 -77.5264 292° West 390 449 28,000  Level Cleveland Center
05:08PM 42.6361 -77.6650 293° West 394 453 28,000 -240 Level Cleveland Center
05:09PM 42.6833 -77.8153 293° West 397 457 27,600 -540 Descending Cleveland Center
05:10PM 42.7244 -77.9556 292° West 402 463 27,000 -300 Descending Cleveland Center
05:11PM 42.7650 -78.0933 292° West 394 453 27,000 -60 Level Cleveland Center
05:12PM 42.8139 -78.2581 292° West 392 451 26,900 -900 Descending Cleveland Center
05:13PM 42.8539 -78.3939 292° West 388 447 25,200 -1,860 Descending Cleveland Center
05:14PM 42.8942 -78.5306 292° West 390 449 23,100 -1,800 Descending Cleveland Center
05:15PM 42.9386 -78.6653 294° West 340 391 21,500 -1,260 Descending Cleveland Center
05:16PM 42.9778 -78.7411 305° West 269 310 20,600 -1,800 Descending Cleveland Center
05:17PM 43.0233 -78.8258 306° West 280 322 17,800 -2,460 Descending Cleveland Center
05:18PM 43.0667 -78.9000 309° West 280 322 15,500 -1,920 Descending Toronto Center
05:19PM 43.1167 -79.0000 304° West 250 288 13,900 -1,740 Descending Toronto Center
05:20PM 43.1500 -79.0667 304° West 240 276 12,100 -960 Descending Toronto Center
05:21PM 43.2000 -79.1500 309° West 260 299 12,000 -60 Descending Toronto Center
05:22PM 43.2333 -79.2167 304° West 260 299 12,000 -60 Level Toronto Center
05:23PM 43.2833 -79.3167 305° West 270 311 11,900 -300 Descending Toronto Center
05:24PM 43.3333 -79.3500 334° Northwest 260 299 11,400 -960 Descending Toronto Center
05:25PM 43.4000 -79.4000 331° Northwest 260 299 10,000 -1,200 Descending Toronto Center
05:26PM 43.4667 -79.4500 331° Northwest 250 288 9,000 -540 Descending Toronto Center
05:27PM 43.5333 -79.5000 331° Northwest 250 288 9,000 -540 Level Toronto Center
05:28PM 43.5833 -79.5167 346° North 230 265 8,000 -1,440 Descending Toronto Center
05:29PM 43.6500 -79.4500 36° Northeast 240 276 6,200 -1,560 Descending Toronto Center
05:30PM 43.7000 -79.4000 36° Northeast 240 276 4,900 -1,320 Descending Toronto Center
05:31PM 43.7500 -79.4000 360° North 210 242 3,600 -1,020 Descending Toronto Center
05:32PM 43.7833 -79.4500 313° West 190 219 2,900 -420 Descending Toronto Center
05:33PM 43.7667 -79.5000 245° Southwest 160 184 2,800 -420 Descending Toronto Center
05:34PM 43.7333 -79.5333 216° Southwest 160 184 2,100 -780 Descending Toronto Center
05:35PM 43.7167 -79.5833 245° Southwest 130 150 1,300 -840 Descending Toronto Center